< < Back
Terminal Aerodrome Forecast


Current Version              Previous Versions:   1  2  3  4  5  6  7  8  9  

Terminal Aerodrome Forecast

955
FTUS42 KGSP 251720
TAFHKY
TAF
KHKY 251720Z 2518/2618 21003KT P6SM SCT040
      TEMPO 2520/2524 VRB03KT TS BKN040CB
     FM260900 VRB03KT 4SM BR FEW040
     FM261300 33003KT P6SM FEW040
     FM261600 03004KT P6SM FEW040=



Latest METAR

600
SAUS70 KWBC 260800 RRF
MTRHKY
METAR KHKY 260753Z AUTO 27003KT 9SM CLR 23/23 A3013 RMK AO2 SLP178
T02330233


USA.gov is the U.S. government's official web portal to all federal, state and local government web resources and services.